Time;durP1;ratioP1;P1;durP2;ratioP2;P2;SDS_P1;SDS_P2;PMS_P1;PMS_P2;Temp;Humidity;BMP_temperature;BMP_pressure;BME280_temperature;BME280_humidity;BME280_pressure;Samples;Min_cycle;Max_cycle;Signal;HPM_P1;HPM_P2
2021/06/02 05:10:49;;;;;;;2.63;2.05;;;21.30;64.40;;;;;;5129247;27;20108;-80
2021/06/02 05:13:18;;;;;;;4.80;2.58;;;21.30;65.00;;;;;;5110343;28;20035;-82
2021/06/02 05:16:17;;;;;;;3.65;2.35;;;21.30;64.80;;;;;;5129060;28;20027;-78
2021/06/02 05:22:35;;;;;;;5.75;2.05;;;21.30;64.50;;;;;;5006375;28;20109;-75
2021/06/02 05:25:26;;;;;;;4.20;2.50;;;21.30;64.50;;;;;;5109662;28;20398;-79
2021/06/02 05:28:16;;;;;;;8.32;2.58;;;21.30;64.50;;;;;;5129243;28;20080;-77
2021/06/02 05:31:19;;;;;;;3.75;2.40;;;21.40;64.50;;;;;;5128955;28;20027;-77
2021/06/02 05:34:02;;;;;;;3.90;2.45;;;21.40;64.60;;;;;;5129144;28;20111;-80
2021/06/02 05:36:38;;;;;;;4.97;2.60;;;21.40;64.50;;;;;;5128467;28;20031;-80
2021/06/02 05:39:07;;;;;;;2.80;1.95;;;21.40;64.70;;;;;;5129320;28;20023;-79
2021/06/02 05:41:54;;;;;;;4.68;2.50;;;21.50;64.90;;;;;;5128858;28;20547;-81
2021/06/02 05:44:37;;;;;;;5.22;2.50;;;21.50;64.90;;;;;;5118251;28;20544;-81
2021/06/02 05:47:34;;;;;;;4.13;2.25;;;21.50;64.60;;;;;;5128585;28;20121;-84
2021/06/02 05:50:08;;;;;;;5.72;2.75;;;21.60;64.90;;;;;;5129525;28;20046;-91
2021/06/02 05:52:59;;;;;;;6.35;2.35;;;21.60;64.90;;;;;;5129306;28;20119;-85
2021/06/02 05:55:40;;;;;;;4.57;2.55;;;21.60;65.00;;;;;;5123601;28;20520;-86
2021/06/02 05:58:24;;;;;;;13.60;2.58;;;21.70;65.00;;;;;;5114925;28;20032;-85
2021/06/02 06:01:27;;;;;;;15.38;4.43;;;21.70;65.20;;;;;;5129841;28;20023;-84
2021/06/02 06:04:14;;;;;;;13.02;4.50;;;21.70;64.60;;;;;;5128649;28;20020;-81
2021/06/02 06:07:00;;;;;;;13.60;4.50;;;21.70;64.90;;;;;;5128202;28;20549;-81
2021/06/02 06:09:57;;;;;;;20.20;7.22;;;21.80;65.40;;;;;;5109665;28;20053;-79
2021/06/02 06:12:44;;;;;;;13.82;4.85;;;21.80;65.60;;;;;;5128049;28;20566;-78
2021/06/02 06:15:24;;;;;;;12.90;5.68;;;21.80;65.20;;;;;;5128037;28;20031;-79
2021/06/02 06:18:24;;;;;;;13.68;5.95;;;21.80;66.00;;;;;;5126943;28;20414;-77
2021/06/02 06:21:01;;;;;;;12.00;5.10;;;21.80;65.80;;;;;;5100617;28;20510;-79
2021/06/02 06:23:33;;;;;;;14.55;4.88;;;21.90;66.30;;;;;;5113986;28;20518;-80
2021/06/02 06:26:14;;;;;;;12.75;5.05;;;21.90;65.50;;;;;;5113863;28;20032;-74
2021/06/02 06:29:06;;;;;;;13.70;5.40;;;21.90;65.20;;;;;;5113495;28;20051;-76
2021/06/02 06:31:35;;;;;;;8.43;4.00;;;21.90;65.80;;;;;;5075508;28;20043;-80
2021/06/02 06:34:08;;;;;;;16.60;5.63;;;21.90;66.20;;;;;;5114631;28;20092;-84
2021/06/02 06:36:35;;;;;;;11.43;4.68;;;22.00;66.90;;;;;;5115033;28;20024;-90
2021/06/02 06:39:04;;;;;;;15.48;5.07;;;22.00;65.80;;;;;;5114406;28;20028;-91
2021/06/02 06:41:32;;;;;;;9.18;4.40;;;22.00;65.80;;;;;;5096114;28;20068;-87
2021/06/02 06:43:59;;;;;;;8.75;4.45;;;22.00;65.80;;;;;;5113391;27;20031;-79
2021/06/02 06:46:28;;;;;;;10.02;3.92;;;22.00;65.60;;;;;;5113544;28;20027;-83
2021/06/02 06:48:58;;;;;;;10.32;4.18;;;22.00;65.70;;;;;;5113344;28;20042;-84
2021/06/02 06:51:28;;;;;;;17.63;4.30;;;22.00;65.60;;;;;;5111554;28;20046;-82
2021/06/02 06:53:54;;;;;;;11.95;4.03;;;22.00;65.60;;;;;;5108781;28;20027;-83
2021/06/02 06:56:21;;;;;;;11.32;4.45;;;22.00;65.60;;;;;;5111951;28;20031;-79
2021/06/02 06:58:47;;;;;;;14.05;4.43;;;22.00;65.50;;;;;;5091423;28;20384;-80
2021/06/02 07:01:17;;;;;;;19.27;3.95;;;22.00;65.50;;;;;;5093202;28;20028;-81
2021/06/02 07:03:44;;;;;;;13.77;3.45;;;22.00;65.40;;;;;;5093887;28;20118;-80
2021/06/02 07:06:12;;;;;;;11.40;3.78;;;22.10;65.40;;;;;;5112134;28;20488;-77
2021/06/02 07:08:42;;;;;;;13.27;4.68;;;22.00;65.20;;;;;;5111976;28;20069;-77
2021/06/02 07:11:08;;;;;;;10.70;4.35;;;22.00;65.20;;;;;;5112286;28;20104;-76
2021/06/02 07:13:34;;;;;;;9.75;4.28;;;22.10;65.10;;;;;;5112358;28;20461;-77
2021/06/02 07:16:01;;;;;;;9.60;3.55;;;22.10;65.00;;;;;;5113453;28;20068;-76
2021/06/02 07:18:30;;;;;;;12.68;4.45;;;22.00;64.90;;;;;;5113083;28;20073;-79
2021/06/02 07:20:57;;;;;;;12.38;3.40;;;22.10;64.90;;;;;;5112519;28;20387;-78
2021/06/02 07:23:23;;;;;;;9.50;3.53;;;22.10;64.90;;;;;;5112666;28;20027;-74
2021/06/02 07:25:49;;;;;;;7.72;3.63;;;22.10;64.90;;;;;;5112400;28;20376;-75
2021/06/02 07:28:20;;;;;;;8.73;3.85;;;22.10;64.80;;;;;;5112217;28;20043;-73
2021/06/02 07:30:46;;;;;;;13.98;3.70;;;22.10;64.80;;;;;;5112731;28;20479;-74
2021/06/02 07:33:11;;;;;;;24.80;3.72;;;22.10;64.90;;;;;;5111194;28;20032;-73
2021/06/02 07:35:37;;;;;;;7.50;3.03;;;22.10;65.00;;;;;;5113020;28;20023;-75
2021/06/02 07:38:02;;;;;;;14.43;3.58;;;22.10;65.00;;;;;;5113224;28;20024;-74
2021/06/02 07:40:28;;;;;;;12.18;3.15;;;22.20;65.00;;;;;;5112606;28;20536;-75
2021/06/02 07:42:54;;;;;;;11.45;3.50;;;22.20;64.90;;;;;;5112605;28;20039;-74
2021/06/02 07:45:19;;;;;;;13.65;3.83;;;22.20;64.70;;;;;;5112534;28;20483;-73
2021/06/02 07:47:45;;;;;;;9.63;3.50;;;22.20;64.80;;;;;;5112312;28;20031;-73
2021/06/02 07:50:12;;;;;;;7.03;3.22;;;22.20;64.70;;;;;;5112510;28;20507;-74
2021/06/02 07:52:38;;;;;;;8.05;3.28;;;22.20;64.70;;;;;;5094512;28;20018;-74
2021/06/02 07:55:04;;;;;;;7.20;2.95;;;22.20;64.60;;;;;;5112912;28;20028;-73
2021/06/02 07:57:31;;;;;;;7.80;3.08;;;22.20;64.60;;;;;;5094561;28;20386;-73
2021/06/02 07:59:57;;;;;;;5.28;3.22;;;22.20;64.60;;;;;;5112741;28;20019;-73
2021/06/02 08:02:22;;;;;;;8.38;3.63;;;22.20;64.50;;;;;;5112206;28;20387;-74
2021/06/02 15:54:20;;;;;;;;;;;25.30;74.50;;;;;;5088894;27;20403;-73
2021/06/02 15:56:48;;;;;;;6.15;3.13;;;25.20;75.00;;;;;;5087480;28;20376;-73
2021/06/02 15:59:18;;;;;;;5.30;3.65;;;25.20;75.00;;;;;;5086722;28;20054;-74
2021/06/02 16:01:44;;;;;;;6.78;3.35;;;25.20;75.00;;;;;;5087190;28;20017;-74
2021/06/02 16:04:10;;;;;;;4.88;3.03;;;25.20;75.00;;;;;;5086829;28;20036;-73
2021/06/02 16:06:36;;;;;;;5.30;3.50;;;25.20;75.00;;;;;;5088127;28;20024;-74
2021/06/02 16:09:02;;;;;;;10.82;3.13;;;25.20;75.00;;;;;;5088643;28;20112;-74
2021/06/02 16:11:27;;;;;;;5.13;2.55;;;25.20;74.90;;;;;;5087905;28;20040;-75
2021/06/02 16:13:53;;;;;;;4.50;3.20;;;25.20;75.00;;;;;;5086805;28;20417;-75
2021/06/02 16:16:19;;;;;;;6.50;2.70;;;25.20;75.00;;;;;;5085992;28;20506;-75
2021/06/02 16:18:44;;;;;;;3.92;2.53;;;25.20;75.20;;;;;;5083689;28;20024;-76
2021/06/02 16:21:10;;;;;;;4.30;2.70;;;25.20;75.30;;;;;;5067791;28;20070;-76
2021/06/02 16:23:36;;;;;;;5.00;3.03;;;25.20;75.00;;;;;;5067931;28;20499;-76
2021/06/02 16:26:01;;;;;;;4.07;2.67;;;25.20;75.00;;;;;;5079480;28;20033;-76
2021/06/02 16:28:28;;;;;;;6.05;2.97;;;25.20;75.00;;;;;;5087446;28;20027;-76
2021/06/02 16:30:56;;;;;;;5.32;3.00;;;25.10;75.10;;;;;;5087590;28;20035;-75
2021/06/02 16:33:23;;;;;;;4.47;2.80;;;25.10;75.30;;;;;;5087705;28;20029;-76
2021/06/02 16:35:50;;;;;;;4.40;3.00;;;25.10;75.40;;;;;;5087927;28;20062;-76
2021/06/02 16:38:16;;;;;;;3.47;2.30;;;25.10;75.20;;;;;;5087671;28;20031;-76
2021/06/02 16:40:42;;;;;;;5.57;2.50;;;25.10;75.50;;;;;;5087768;28;20028;-76
2021/06/02 16:43:11;;;;;;;3.92;2.65;;;25.10;75.50;;;;;;5086189;28;20102;-75
2021/06/02 16:45:37;;;;;;;3.65;2.17;;;25.10;75.70;;;;;;5087293;28;20043;-76
2021/06/02 16:48:04;;;;;;;6.50;3.08;;;25.10;75.90;;;;;;5086153;28;20078;-76
2021/06/02 16:50:30;;;;;;;4.13;2.40;;;25.10;75.90;;;;;;5087165;28;20047;-75
2021/06/02 16:52:58;;;;;;;3.65;2.47;;;25.10;76.00;;;;;;5086039;28;20037;-75
2021/06/02 16:55:28;;;;;;;3.97;2.50;;;25.10;76.00;;;;;;5087342;28;20032;-75
2021/06/02 16:57:54;;;;;;;4.47;2.72;;;25.10;76.30;;;;;;5086901;28;20048;-76
2021/06/02 17:00:23;;;;;;;3.30;2.58;;;25.00;76.30;;;;;;5086919;28;20503;-75
2021/06/02 17:02:52;;;;;;;9.27;2.72;;;25.10;76.70;;;;;;5085819;28;20433;-76
2021/06/02 17:05:17;;;;;;;3.35;2.50;;;25.00;77.10;;;;;;5075618;28;20099;-75
2021/06/02 17:07:44;;;;;;;4.32;2.22;;;25.00;76.60;;;;;;5072481;28;20119;-75
2021/06/02 17:10:11;;;;;;;6.72;2.55;;;25.00;76.60;;;;;;5073130;28;20033;-75
2021/06/02 17:12:36;;;;;;;5.78;2.42;;;25.00;77.20;;;;;;5072706;28;20025;-75
2021/06/02 17:15:05;;;;;;;4.72;2.55;;;25.00;77.30;;;;;;5074012;28;20123;-74
2021/06/02 17:17:36;;;;;;;6.07;2.53;;;25.00;77.20;;;;;;5072901;28;20020;-74
2021/06/02 17:20:02;;;;;;;9.02;2.63;;;25.00;77.20;;;;;;5071043;28;20025;-75
2021/06/02 17:22:29;;;;;;;4.75;2.00;;;25.00;77.40;;;;;;5071516;28;20027;-74
2021/06/02 17:24:55;;;;;;;3.03;1.92;;;25.00;77.50;;;;;;5071942;28;20033;-75
2021/06/02 17:27:23;;;;;;;4.35;2.65;;;25.00;77.50;;;;;;5071454;28;20028;-76
2021/06/02 17:29:54;;;;;;;4.13;2.42;;;25.00;77.70;;;;;;5071821;28;20033;-75
2021/06/02 17:32:20;;;;;;;5.63;2.10;;;24.90;77.90;;;;;;5068928;28;20035;-75
2021/06/02 17:34:46;;;;;;;5.28;2.53;;;24.90;78.20;;;;;;5072383;28;20029;-76
2021/06/02 17:37:12;;;;;;;4.20;2.45;;;24.90;78.00;;;;;;5071504;28;20024;-75
